createdAt,value
2022-09-27T00:01:04.880Z,100.00
2022-09-27T00:03:33.115Z,100.00
2022-09-27T00:06:02.677Z,100.00
2022-09-27T00:08:30.243Z,100.00
2022-09-27T00:11:01.983Z,100.00
2022-09-27T00:13:29.657Z,100.00
2022-09-27T00:16:00.988Z,100.00
2022-09-27T00:18:28.599Z,100.00
2022-09-27T00:20:56.146Z,100.00
2022-09-27T00:23:23.837Z,100.00
2022-09-27T00:26:00.752Z,100.00
2022-09-27T00:28:28.725Z,100.00
2022-09-27T00:30:56.408Z,100.00
2022-09-27T00:33:24.048Z,100.00
2022-09-27T00:35:51.745Z,100.00
2022-09-27T00:38:19.494Z,100.00
2022-09-27T00:40:47.072Z,100.00
2022-09-27T00:43:22.542Z,100.00
2022-09-27T00:45:57.961Z,100.00
2022-09-27T00:48:27.991Z,100.00
2022-09-27T00:50:57.719Z,100.00
2022-09-27T00:53:29.926Z,100.00
2022-09-27T00:56:02.391Z,100.00
2022-09-27T00:58:57.977Z,100.00
2022-09-27T01:01:25.592Z,100.00
2022-09-27T01:04:06.505Z,100.00
2022-09-27T01:06:34.045Z,100.00
2022-09-27T01:09:01.698Z,100.00
2022-09-27T01:11:36.697Z,100.00
2022-09-27T01:14:16.439Z,100.00
2022-09-27T01:16:53.481Z,100.00
2022-09-27T01:19:34.579Z,100.00
2022-09-27T01:22:18.708Z,100.00
2022-09-27T01:25:12.228Z,100.00
2022-09-27T01:27:51.440Z,100.00
2022-09-27T01:30:34.029Z,100.00
2022-09-27T01:33:12.724Z,100.00
2022-09-27T01:36:02.298Z,100.00
2022-09-27T01:38:41.890Z,100.00
2022-09-27T01:41:17.038Z,100.00
2022-09-27T01:44:07.190Z,100.00
2022-09-27T01:46:42.441Z,100.00
2022-09-27T01:49:18.572Z,100.00
2022-09-27T01:52:08.811Z,100.00
2022-09-27T01:54:48.317Z,100.00
2022-09-27T01:57:31.206Z,100.00
2022-09-27T02:00:02.111Z,100.00
2022-09-27T02:02:46.677Z,100.00
2022-09-27T02:05:50.206Z,100.00
2022-09-27T02:08:37.069Z,100.00
2022-09-27T02:11:14.844Z,100.00
2022-09-27T02:13:53.453Z,100.00
2022-09-27T02:16:47.084Z,100.00
2022-09-27T02:19:24.877Z,100.00
2022-09-27T02:22:10.288Z,100.00
2022-09-27T02:24:42.916Z,100.00
2022-09-27T02:27:14.278Z,100.00
2022-09-27T02:29:43.952Z,100.00
2022-09-27T02:32:11.700Z,100.00
2022-09-27T02:34:39.436Z,100.00
2022-09-27T02:37:06.973Z,100.00
2022-09-27T02:39:35.366Z,100.00
2022-09-27T02:42:06.004Z,100.00
2022-09-27T02:44:34.308Z,100.00
2022-09-27T02:47:40.005Z,100.00
2022-09-27T02:50:26.834Z,100.00
2022-09-27T02:53:19.143Z,100.00
2022-09-27T02:56:28.864Z,100.00
2022-09-27T02:59:14.862Z,100.00
2022-09-27T03:02:30.671Z,100.00
2022-09-27T03:05:25.785Z,100.00
2022-09-27T03:07:53.374Z,100.00
2022-09-27T03:10:26.222Z,100.00
2022-09-27T03:12:54.568Z,100.00
2022-09-27T03:15:22.117Z,100.00
2022-09-27T03:18:10.708Z,100.00
2022-09-27T03:20:57.112Z,100.00
2022-09-27T03:23:27.772Z,100.00
2022-09-27T03:25:55.916Z,100.00
2022-09-27T03:28:24.581Z,100.00
2022-09-27T03:30:52.547Z,100.00
2022-09-27T03:33:40.805Z,100.00
2022-09-27T03:36:12.470Z,100.00
2022-09-27T03:38:40.488Z,100.00
2022-09-27T03:41:11.783Z,100.00
2022-09-27T03:43:41.898Z,100.00
2022-09-27T03:46:09.516Z,100.00
2022-09-27T03:48:37.445Z,100.00
2022-09-27T03:51:05.191Z,100.00
2022-09-27T03:53:32.886Z,100.00
2022-09-27T03:56:00.893Z,100.00
2022-09-27T03:58:29.212Z,100.00
2022-09-27T04:00:56.761Z,100.00
2022-09-27T04:03:24.929Z,100.00
2022-09-27T04:06:11.437Z,100.00
2022-09-27T04:08:42.925Z,100.00
2022-09-27T04:11:12.182Z,100.00
2022-09-27T04:13:44.684Z,100.00
2022-09-27T04:16:13.201Z,100.00
2022-09-27T04:18:50.930Z,100.00
2022-09-27T04:21:39.317Z,100.00
2022-09-27T04:24:08.731Z,100.00
2022-09-27T04:26:37.308Z,100.00
2022-09-27T04:29:11.407Z,100.00
2022-09-27T04:31:44.593Z,100.00
2022-09-27T04:34:51.106Z,100.00
2022-09-27T04:37:23.481Z,100.00
2022-09-27T04:39:54.901Z,100.00
2022-09-27T04:42:22.412Z,100.00
2022-09-27T04:44:50.016Z,100.00
2022-09-27T04:47:18.598Z,100.00
2022-09-27T04:49:46.121Z,100.00
2022-09-27T04:52:15.598Z,100.00
2022-09-27T04:54:43.432Z,100.00
2022-09-27T04:57:12.971Z,100.00
2022-09-27T04:59:41.715Z,100.00
2022-09-27T05:02:09.983Z,100.00
2022-09-27T05:04:59.976Z,100.00
2022-09-27T05:07:34.333Z,100.00
2022-09-27T05:10:07.157Z,100.00
2022-09-27T05:12:35.799Z,100.00
2022-09-27T05:15:04.752Z,100.00
2022-09-27T05:17:52.511Z,100.00
2022-09-27T05:20:32.299Z,100.00
2022-09-27T05:23:08.302Z,100.00
2022-09-27T05:25:37.270Z,100.00
2022-09-27T05:28:05.643Z,100.00
2022-09-27T05:30:33.594Z,100.00
2022-09-27T05:33:12.156Z,100.00
2022-09-27T05:35:55.398Z,100.00
2022-09-27T05:38:26.219Z,100.00
2022-09-27T05:40:57.233Z,100.00
2022-09-27T05:43:25.646Z,100.00
2022-09-27T05:45:54.001Z,100.00
2022-09-27T05:48:23.621Z,100.00
2022-09-27T05:51:01.646Z,100.00
2022-09-27T05:53:32.575Z,100.00
2022-09-27T05:56:04.234Z,100.00
2022-09-27T05:58:50.386Z,100.00
2022-09-27T06:01:20.085Z,100.00
2022-09-27T06:04:06.186Z,100.00
2022-09-27T06:07:09.320Z,100.00
2022-09-27T06:09:36.865Z,100.00
2022-09-27T06:12:04.639Z,100.00
2022-09-27T06:14:32.393Z,100.00
2022-09-27T06:17:05.565Z,100.00
2022-09-27T06:19:35.899Z,100.00
2022-09-27T06:22:03.589Z,100.00
2022-09-27T06:24:41.909Z,100.00
2022-09-27T06:27:18.864Z,100.00
2022-09-27T06:30:20.477Z,100.00
2022-09-27T06:32:59.049Z,100.00
2022-09-27T06:35:38.813Z,100.00
2022-09-27T06:38:09.045Z,100.00
2022-09-27T06:40:39.446Z,100.00
2022-09-27T06:43:20.024Z,100.00
2022-09-27T06:46:13.825Z,100.00
2022-09-27T06:49:20.121Z,100.00
2022-09-27T06:51:49.665Z,100.00
2022-09-27T06:54:17.209Z,100.00
2022-09-27T06:56:47.274Z,100.00
2022-09-27T06:59:33.751Z,100.00
2022-09-27T07:02:19.785Z,100.00
2022-09-27T07:04:59.169Z,99.97
2022-09-27T07:07:40.218Z,100.00
2022-09-27T07:10:10.028Z,100.00
2022-09-27T07:12:38.537Z,100.00
2022-09-27T07:15:06.853Z,100.00
2022-09-27T07:17:37.518Z,100.00
2022-09-27T07:20:05.810Z,100.00
2022-09-27T07:22:33.457Z,100.00
2022-09-27T07:25:04.138Z,100.00
2022-09-27T07:27:33.217Z,100.00
2022-09-27T07:30:01.550Z,99.65
2022-09-27T07:32:29.257Z,98.52
2022-09-27T07:34:56.801Z,98.70
2022-09-27T07:37:24.460Z,97.77
2022-09-27T07:39:52.622Z,96.37
2022-09-27T07:42:20.758Z,97.28
2022-09-27T07:44:52.012Z,97.56
2022-09-27T07:47:39.635Z,97.03
2022-09-27T07:50:17.265Z,97.37
2022-09-27T07:52:55.613Z,96.85
2022-09-27T07:55:35.047Z,95.21
2022-09-27T07:58:30.648Z,94.23
2022-09-27T08:01:02.681Z,93.19
2022-09-27T08:03:31.334Z,95.27
2022-09-27T08:06:02.311Z,94.51
2022-09-27T08:08:30.976Z,93.64
2022-09-27T08:11:01.177Z,93.70
2022-09-27T08:13:31.494Z,93.08
2022-09-27T08:16:02.184Z,93.07
2022-09-27T08:18:34.114Z,93.11
2022-09-27T08:21:21.974Z,93.08
2022-09-27T08:24:11.239Z,92.75
2022-09-27T08:27:11.499Z,92.36
2022-09-27T08:29:53.893Z,92.36
2022-09-27T08:32:23.471Z,91.46
2022-09-27T08:34:52.320Z,91.95
2022-09-27T08:37:22.051Z,92.09
2022-09-27T08:39:50.920Z,91.82
2022-09-27T08:42:25.337Z,90.88
2022-09-27T08:45:04.503Z,90.29
2022-09-27T08:47:39.541Z,91.59
2022-09-27T08:50:29.202Z,91.46
2022-09-27T08:53:19.559Z,91.71
2022-09-27T08:55:48.400Z,91.42
2022-09-27T08:58:26.539Z,91.28
2022-09-27T09:00:57.752Z,90.98
2022-09-27T09:03:30.291Z,90.95
2022-09-27T09:06:16.661Z,90.56
2022-09-27T09:09:08.514Z,89.94
2022-09-27T09:12:05.828Z,90.23
2022-09-27T09:15:00.786Z,90.16
2022-09-27T09:18:03.088Z,89.73
2022-09-27T09:21:21.192Z,90.66
2022-09-27T09:24:08.256Z,90.45
2022-09-27T09:26:45.860Z,90.38
2022-09-27T09:29:43.933Z,89.31
2022-09-27T09:32:23.413Z,89.27
2022-09-27T09:35:06.613Z,88.80
2022-09-27T09:37:41.212Z,88.50
2022-09-27T09:40:20.404Z,89.19
2022-09-27T09:43:14.519Z,88.51
2022-09-27T09:46:46.757Z,88.48
2022-09-27T09:49:18.592Z,87.79
2022-09-27T09:51:51.322Z,87.92
2022-09-27T09:54:42.640Z,87.77
2022-09-27T09:57:25.936Z,87.58
2022-09-27T09:59:58.569Z,86.83
2022-09-27T10:02:26.076Z,85.38
2022-09-27T10:04:58.353Z,86.26
2022-09-27T10:07:26.276Z,85.76
2022-09-27T10:09:57.836Z,84.45
2022-09-27T10:12:52.548Z,85.25
2022-09-27T10:15:24.130Z,84.05
2022-09-27T10:17:54.475Z,84.36
2022-09-27T10:20:45.859Z,84.69
2022-09-27T10:23:21.283Z,85.46
2022-09-27T10:26:09.236Z,85.32
2022-09-27T10:28:47.620Z,85.74
2022-09-27T10:31:19.917Z,85.00
2022-09-27T10:34:05.333Z,84.67
2022-09-27T10:36:40.029Z,86.03
2022-09-27T10:39:21.359Z,85.48
2022-09-27T10:41:48.951Z,86.11
2022-09-27T10:44:27.824Z,86.31
2022-09-27T10:47:23.054Z,85.28
2022-09-27T10:50:22.795Z,85.28
2022-09-27T10:53:12.357Z,85.84
2022-09-27T10:55:41.269Z,85.04
2022-09-27T10:58:20.253Z,84.97
2022-09-27T11:00:56.619Z,85.16
2022-09-27T11:03:25.725Z,85.48
2022-09-27T11:05:54.915Z,84.14
2022-09-27T11:08:30.626Z,83.56
2022-09-27T11:11:07.190Z,84.36
2022-09-27T11:13:37.999Z,84.55
2022-09-27T11:16:22.592Z,83.79
2022-09-27T11:19:18.519Z,83.28
2022-09-27T11:22:08.609Z,82.40
2022-09-27T11:24:58.347Z,81.69
2022-09-27T11:27:34.627Z,82.47
2022-09-27T11:30:13.086Z,82.39
2022-09-27T11:33:55.089Z,81.79
2022-09-27T11:37:05.291Z,82.02
2022-09-27T11:39:52.967Z,82.05
2022-09-27T11:43:05.807Z,81.10
2022-09-27T11:46:14.403Z,81.16
2022-09-27T11:48:41.010Z,81.14
2022-09-27T11:51:27.897Z,80.53
2022-09-27T11:54:13.965Z,79.79
2022-09-27T11:56:58.137Z,79.78
2022-09-27T11:59:47.816Z,80.41
2022-09-27T12:02:39.858Z,80.76
2022-09-27T12:05:28.891Z,80.94
2022-09-27T12:08:27.431Z,81.25
2022-09-27T12:11:01.952Z,82.99
2022-09-27T12:13:37.074Z,82.17
2022-09-27T12:16:04.998Z,82.75
2022-09-27T12:18:39.175Z,83.37
2022-09-27T12:21:16.889Z,83.23
2022-09-27T12:23:44.396Z,83.85
2022-09-27T12:26:35.927Z,83.27
2022-09-27T12:29:45.325Z,83.93
2022-09-27T12:32:20.998Z,85.37
2022-09-27T12:34:56.828Z,84.42
2022-09-27T12:37:36.277Z,84.58
2022-09-27T12:40:16.687Z,84.71
2022-09-27T12:42:49.354Z,84.76
2022-09-27T12:45:58.133Z,84.53
2022-09-27T12:48:41.999Z,84.88
2022-09-27T12:51:11.913Z,85.13
2022-09-27T12:54:10.911Z,85.51
2022-09-27T12:57:32.538Z,85.32
2022-09-27T13:00:05.794Z,85.47
2022-09-27T13:03:14.593Z,85.76
2022-09-27T13:06:22.229Z,86.71
2022-09-27T13:09:16.214Z,86.86
2022-09-27T13:12:01.600Z,86.93
2022-09-27T13:14:35.610Z,87.22
2022-09-27T13:17:03.246Z,87.27
2022-09-27T13:19:42.628Z,87.32
2022-09-27T13:22:26.964Z,87.61
2022-09-27T13:25:54.319Z,87.56
2022-09-27T13:29:03.311Z,88.25
2022-09-27T13:32:19.172Z,88.77
2022-09-27T13:35:33.817Z,88.60
2022-09-27T13:38:22.756Z,88.95
2022-09-27T13:40:51.164Z,90.12
2022-09-27T13:44:05.407Z,91.12
2022-09-27T13:47:13.356Z,90.38
2022-09-27T13:49:42.212Z,90.94
2022-09-27T13:52:15.428Z,91.59
2022-09-27T13:54:56.227Z,91.68
2022-09-27T13:57:46.008Z,92.18
2022-09-27T14:00:18.831Z,93.15
2022-09-27T14:03:05.265Z,93.49
2022-09-27T14:05:41.465Z,95.14
2022-09-27T14:08:25.961Z,95.06
2022-09-27T14:10:53.729Z,95.73
2022-09-27T14:13:21.888Z,95.62
2022-09-27T14:16:00.032Z,95.95
2022-09-27T14:18:27.745Z,96.21
2022-09-27T14:20:56.583Z,96.51
2022-09-27T14:23:50.937Z,96.32
2022-09-27T14:26:28.025Z,96.63
2022-09-27T14:28:55.845Z,97.72
2022-09-27T14:31:31.390Z,97.49
2022-09-27T14:34:06.563Z,97.30
2022-09-27T14:36:52.781Z,97.29
2022-09-27T14:39:23.448Z,97.86
2022-09-27T14:41:52.940Z,99.17
2022-09-27T14:44:23.621Z,99.53
2022-09-27T14:47:11.424Z,100.00
2022-09-27T14:49:47.400Z,100.00
2022-09-27T14:52:21.948Z,100.00
2022-09-27T14:54:57.292Z,100.00
2022-09-27T14:57:26.258Z,100.00
2022-09-27T14:59:54.021Z,100.00
2022-09-27T15:02:22.576Z,100.00
2022-09-27T15:04:51.437Z,100.00
2022-09-27T15:07:19.845Z,100.00
2022-09-27T15:09:48.033Z,100.00
2022-09-27T15:12:23.015Z,100.00
2022-09-27T15:14:54.114Z,100.00
2022-09-27T15:17:22.111Z,100.00
2022-09-27T15:19:57.641Z,100.00
2022-09-27T15:22:34.596Z,100.00
2022-09-27T15:25:19.355Z,100.00
2022-09-27T15:27:49.200Z,100.00
2022-09-27T15:30:21.663Z,100.00
2022-09-27T15:32:51.737Z,100.00
2022-09-27T15:35:23.399Z,100.00
2022-09-27T15:37:51.251Z,100.00
2022-09-27T15:40:19.787Z,100.00
2022-09-27T15:43:01.528Z,100.00
2022-09-27T15:45:31.130Z,100.00
2022-09-27T15:48:06.649Z,100.00
2022-09-27T15:50:34.420Z,100.00
2022-09-27T15:53:04.100Z,100.00
2022-09-27T15:55:31.718Z,100.00
2022-09-27T15:58:08.344Z,100.00
2022-09-27T16:00:36.402Z,100.00
2022-09-27T16:03:04.212Z,100.00
2022-09-27T16:05:33.364Z,100.00
2022-09-27T16:08:01.304Z,100.00
2022-09-27T16:10:37.373Z,100.00
2022-09-27T16:13:05.034Z,100.00
2022-09-27T16:15:32.637Z,100.00
2022-09-27T16:18:00.303Z,100.00
2022-09-27T16:20:28.137Z,100.00
2022-09-27T16:22:56.087Z,100.00
2022-09-27T16:25:23.820Z,100.00
2022-09-27T16:27:52.576Z,100.00
2022-09-27T16:30:20.879Z,100.00
2022-09-27T16:32:48.981Z,100.00
2022-09-27T16:35:17.552Z,100.00
2022-09-27T16:37:45.444Z,100.00
2022-09-27T16:40:13.604Z,100.00
2022-09-27T16:42:41.430Z,100.00
2022-09-27T16:45:12.000Z,100.00
2022-09-27T16:47:42.327Z,100.00
2022-09-27T16:50:29.484Z,100.00
2022-09-27T16:52:57.221Z,100.00
2022-09-27T16:55:26.268Z,100.00
2022-09-27T16:57:54.132Z,100.00
2022-09-27T17:00:21.800Z,100.00
2022-09-27T17:02:49.828Z,100.00
2022-09-27T17:05:18.422Z,100.00
2022-09-27T17:07:46.299Z,100.00
2022-09-27T17:10:15.311Z,100.00
2022-09-27T17:12:44.541Z,100.00
2022-09-27T17:15:12.228Z,100.00
2022-09-27T17:17:39.946Z,100.00
2022-09-27T17:20:07.627Z,100.00
2022-09-27T17:22:35.380Z,100.00
2022-09-27T17:25:06.819Z,100.00
2022-09-27T17:27:36.496Z,100.00
2022-09-27T17:30:06.978Z,100.00
2022-09-27T17:32:34.991Z,100.00
2022-09-27T17:35:02.844Z,100.00
2022-09-27T17:37:30.559Z,100.00
2022-09-27T17:39:58.159Z,100.00
2022-09-27T17:42:25.924Z,100.00
2022-09-27T17:44:53.628Z,100.00
2022-09-27T17:47:39.596Z,100.00
2022-09-27T17:50:28.669Z,100.00
2022-09-27T17:52:57.424Z,100.00
2022-09-27T17:55:25.228Z,100.00
2022-09-27T17:57:52.976Z,100.00
2022-09-27T18:00:20.919Z,100.00
2022-09-27T18:02:48.712Z,100.00
2022-09-27T18:05:18.473Z,100.00
2022-09-27T18:07:47.825Z,100.00
2022-09-27T18:10:17.816Z,100.00
2022-09-27T18:12:45.525Z,100.00
2022-09-27T18:15:13.310Z,100.00
2022-09-27T18:17:41.034Z,100.00
2022-09-27T18:20:08.974Z,100.00
2022-09-27T18:22:36.701Z,100.00
2022-09-27T18:25:05.564Z,100.00
2022-09-27T18:27:34.747Z,100.00
2022-09-27T18:30:03.571Z,100.00
2022-09-27T18:32:31.371Z,100.00
2022-09-27T18:34:58.830Z,100.00
2022-09-27T18:37:27.203Z,100.00
2022-09-27T18:39:55.769Z,100.00
2022-09-27T18:42:23.392Z,100.00
2022-09-27T18:44:51.441Z,100.00
2022-09-27T18:47:19.307Z,100.00
2022-09-27T18:49:47.049Z,100.00
2022-09-27T18:52:15.182Z,100.00
2022-09-27T18:54:43.767Z,100.00
2022-09-27T18:57:11.358Z,100.00
2022-09-27T18:59:39.456Z,100.00
2022-09-27T19:02:07.154Z,100.00
2022-09-27T19:04:36.760Z,100.00
2022-09-27T19:07:04.506Z,100.00
2022-09-27T19:09:32.220Z,100.00
2022-09-27T19:12:02.444Z,100.00
2022-09-27T19:14:30.173Z,100.00
2022-09-27T19:16:57.689Z,100.00
2022-09-27T19:19:25.895Z,100.00
2022-09-27T19:21:53.456Z,100.00
2022-09-27T19:24:21.077Z,100.00
2022-09-27T19:26:53.743Z,100.00
2022-09-27T19:29:21.393Z,100.00
2022-09-27T19:31:48.949Z,100.00
2022-09-27T19:34:16.668Z,100.00
2022-09-27T19:36:44.287Z,100.00
2022-09-27T19:39:12.762Z,100.00
2022-09-27T19:41:40.466Z,100.00
2022-09-27T19:44:08.196Z,100.00
2022-09-27T19:46:36.069Z,100.00
2022-09-27T19:49:06.015Z,100.00
2022-09-27T19:51:34.185Z,100.00
2022-09-27T19:54:01.829Z,100.00
2022-09-27T19:56:29.833Z,100.00
2022-09-27T19:58:58.526Z,100.00
2022-09-27T20:01:26.329Z,100.00
2022-09-27T20:03:55.874Z,100.00
2022-09-27T20:06:23.828Z,100.00
2022-09-27T20:08:51.433Z,100.00
2022-09-27T20:11:20.440Z,100.00
2022-09-27T20:13:49.361Z,100.00
2022-09-27T20:16:20.429Z,100.00
2022-09-27T20:18:53.520Z,100.00
2022-09-27T20:21:22.045Z,100.00
2022-09-27T20:23:50.542Z,100.00
2022-09-27T20:26:19.035Z,100.00
2022-09-27T20:28:50.562Z,100.00
2022-09-27T20:31:21.483Z,100.00
2022-09-27T20:33:51.877Z,100.00
2022-09-27T20:36:23.500Z,100.00
2022-09-27T20:38:52.516Z,100.00
2022-09-27T20:41:22.872Z,100.00
2022-09-27T20:43:56.122Z,100.00
2022-09-27T20:46:24.538Z,100.00
2022-09-27T20:48:53.784Z,100.00
2022-09-27T20:51:21.562Z,100.00
2022-09-27T20:53:51.366Z,100.00
2022-09-27T20:56:40.724Z,100.00
2022-09-27T20:59:15.932Z,100.00
2022-09-27T21:01:48.182Z,100.00
2022-09-27T21:04:17.252Z,100.00
2022-09-27T21:06:44.975Z,100.00
2022-09-27T21:09:19.185Z,100.00
2022-09-27T21:11:47.824Z,100.00
2022-09-27T21:14:15.837Z,100.00
2022-09-27T21:16:44.083Z,100.00
2022-09-27T21:19:11.783Z,100.00
2022-09-27T21:21:39.899Z,100.00
2022-09-27T21:24:07.469Z,100.00
2022-09-27T21:26:36.204Z,100.00
2022-09-27T21:29:09.487Z,100.00
2022-09-27T21:31:38.172Z,100.00
2022-09-27T21:34:06.972Z,100.00
2022-09-27T21:36:36.438Z,100.00
2022-09-27T21:39:05.099Z,100.00
2022-09-27T21:41:34.964Z,100.00
2022-09-27T21:44:04.342Z,100.00
2022-09-27T21:46:31.971Z,100.00
2022-09-27T21:49:00.246Z,100.00
2022-09-27T21:51:37.668Z,100.00
2022-09-27T21:54:07.076Z,100.00
2022-09-27T21:56:36.815Z,100.00
2022-09-27T21:59:07.856Z,100.00
2022-09-27T22:01:36.199Z,100.00
2022-09-27T22:04:04.776Z,100.00
2022-09-27T22:06:34.324Z,100.00
2022-09-27T22:09:02.021Z,100.00
2022-09-27T22:11:37.621Z,100.00
2022-09-27T22:14:07.033Z,100.00
2022-09-27T22:16:36.209Z,100.00
2022-09-27T22:19:04.460Z,100.00
2022-09-27T22:21:34.041Z,100.00
2022-09-27T22:24:07.512Z,100.00
2022-09-27T22:26:37.491Z,100.00
2022-09-27T22:29:05.565Z,100.00
2022-09-27T22:31:33.343Z,100.00
2022-09-27T22:34:03.616Z,100.00
2022-09-27T22:36:31.686Z,100.00
2022-09-27T22:39:00.492Z,100.00
2022-09-27T22:41:30.578Z,100.00
2022-09-27T22:43:58.968Z,100.00
2022-09-27T22:46:26.699Z,100.00
2022-09-27T22:48:56.331Z,100.00
2022-09-27T22:51:23.985Z,100.00
2022-09-27T22:53:51.850Z,100.00
2022-09-27T22:56:20.222Z,100.00
2022-09-27T22:58:48.253Z,100.00
2022-09-27T23:01:19.441Z,100.00
2022-09-27T23:03:47.774Z,100.00
2022-09-27T23:06:16.456Z,100.00
2022-09-27T23:08:44.386Z,100.00
2022-09-27T23:11:13.056Z,100.00
2022-09-27T23:13:41.729Z,100.00
2022-09-27T23:16:13.861Z,100.00
2022-09-27T23:18:42.282Z,100.00
2022-09-27T23:21:11.746Z,100.00
2022-09-27T23:23:41.526Z,100.00
2022-09-27T23:26:10.987Z,100.00
2022-09-27T23:28:38.724Z,100.00
2022-09-27T23:31:13.901Z,100.00
2022-09-27T23:33:43.599Z,100.00
2022-09-27T23:36:15.453Z,100.00
2022-09-27T23:38:45.715Z,100.00
2022-09-27T23:41:13.974Z,100.00
2022-09-27T23:43:42.067Z,100.00
2022-09-27T23:46:09.831Z,100.00
2022-09-27T23:48:37.807Z,100.00
2022-09-27T23:51:06.776Z,100.00
2022-09-27T23:53:34.618Z,100.00
2022-09-27T23:56:23.276Z,100.00
2022-09-27T23:58:50.804Z,100.00
